KCKZ

Details ICAO KCKZ
Name Pennridge Airport
Region United States
Timezone America/New_York (UTC-4.0)
Plans Departing 0
Arriving 2
Stats Elevation 567 ft / 173 m (AMSL)
Location 40.389196° -75.290674°
Runways 1
Magnetic Variation 12.143° W
Sunrise 2018-05-26 09:37:49 UTC / 2018-05-26 05:37:49 Local
Sunset 2018-05-27 00:21:31 UTC / 2018-05-26 20:21:31 Local
Advertisement - Login to hide

Runways

ID Width Length Bearing (true) Bearing (mag) Surface Threshold Offset Overrun Length
08 100 ft / 30 m 4,201 ft / 1,281 m 249.63° 261.77° Asphalt 351 ft / 107 m 0 ft / 0 m
26 100 ft / 30 m 4,201 ft / 1,281 m 69.62° 81.76° Asphalt 266 ft / 81 m 0 ft / 0 m

Map

Weather


0- 5 10 15 20 25 30 35+ Temperature / ° C

Clouds and Precipitation
Forecast for 2018-05-26 18:00 UTC. Updated 6 hours ago

Ground ~20,000 ft ~40,000 ft Winds

METAR

KCKZ 262235Z AUTO 28004KT 10SM VCTS CLR 30/18 A2983 RMK AO2 LTG DSNT S AND SW

TAF

Not found

Frequencies

Recorded 126.32 MHz WX AWOS-3
Clearance 118.55 MHz CLNC DEL
Unicom 123.00 MHz CTAF/UNICOM
Approach 123.80 MHz PHILADELPHIA APP/DEP
Warning: Do not use this data for real-world aviation or navigation. No guarantee of current accuracy is given.